NOAA Web Site Link Tides and Currents Home Page Transparent placeholder image

PORTS® Data Listing: 8557380 Lewes, DE

CO-OPS RAW PORTS DATA

************************      PRELIMINARY DATA      ************************** 

     THIS RAW DATA HAS NOT BEEN SUBJECT TO THE NATIONAL OCEAN SERVICE'S        
     QUALITY CONTROL OR QUALITY ASSURANCE PROCEDURES AND DOES NOT MEET         
     THE CRITERIA AND STANDARDS OF OFFICIAL NATIONAL OCEAN SERVICE             
     DATA.  IT IS RELEASED FOR LIMITED PUBLIC USE AS PRELIMINARY DATA TO       
     BE USED ONLY WITH APPROPRIATE CAUTION.                                    

************************      PRELIMINARY DATA      ************************** 


       CD   -   Calendar date
       T    -   Time
       TZ   -   Timezone
       PW   -   Predicted water level (feet above MLLW)
       OW   -   Observed water level (feet above MLLW)
       WS   -   Wind speed (knots)
       WD   -   Wind direction (degrees true)
       WG   -   Wind gust (knots)
       AT   -   Air temperature (degrees farenheit)
       WT   -   Water temperature (degrees farenheit)
       AP   -   Air pressure (millibars)
       SA   -   Salinty (PSU - Practical Salinity Units)
       SG   -   Specific gravity
       RH   -   Relative humidity
       AG   -   Air gap (feet)
       VI   -   Visibility (nautical miles)

       ** NOTE **
       A variable that has its data fields filled with "9"s, indicates that
       data was not collected for that sample period.
       **********


STATION NAME: Lewes (8557380)
****************************************************************************************************
    CD       T    TZ    PW     OW    WS   WD   WG    AT    WT    AP    SA    SG     RH    AG   VI
****************************************************************************************************
2018/08/19 18:30 EDT    3.57   4.94   15   58   17  73.9  79.2 1015.0 27.3  1.018 -99.9 -99.99 -9.99
2018/08/19 18:36 EDT    3.49   4.88   15   53   17  73.8  79.2 1015.0 27.3  1.018 -99.9 -99.99 -9.99
2018/08/19 18:42 EDT    3.41   4.83   17   60   19  73.6  79.2 1014.9 27.3  1.018 -99.9 -99.99 -9.99
2018/08/19 18:48 EDT    3.32   4.71   17   55   20  73.8  79.0 1015.0 27.3  1.018 -99.9 -99.99 -9.99
2018/08/19 18:54 EDT    3.24   4.64   16   60   18  73.6  79.0 1015.2 27.3  1.018 -99.9 -99.99 -9.99
2018/08/19 19:00 EDT    3.15   4.57   17   45   20  73.2  79.0 1015.3 27.3  1.018 -99.9 -99.99 -9.99
2018/08/19 19:06 EDT    3.06   4.45   17   52   20  73.2  79.0 1015.3 27.1  1.018 -99.9 -99.99 -9.99
2018/08/19 19:12 EDT    2.97   4.38   16   59   19  73.0  79.0 1015.2 27.2  1.018 -99.9 -99.99 -9.99
2018/08/19 19:18 EDT    2.87   4.31   17   52   20  73.2  79.2 1015.3 27.1  1.018 -99.9 -99.99 -9.99
2018/08/19 19:24 EDT    2.78   4.19    4  115   11  73.6  79.0 1015.3 27.2  1.018 -99.9 -99.99 -9.99
2018/08/19 19:30 EDT    2.68   4.10   16   55   19  73.4  79.0 1015.3 27.2  1.018 -99.9 -99.99 -9.99
2018/08/19 19:36 EDT    2.59   4.00   15   50   17  73.2  79.2 1015.2 27.1  1.018 -99.9 -99.99 -9.99
2018/08/19 19:42 EDT    2.49   3.92   17   58   20  73.2  78.8 1015.3 27.2  1.018 -99.9 -99.99 -9.99
2018/08/19 19:48 EDT    2.40   3.90   14   55   21  73.6  78.6 1015.2 27.2  1.018 -99.9 -99.99 -9.99
2018/08/19 19:54 EDT    2.30   3.84   17   57   20  73.2  78.6 1015.4 27.2  1.018 -99.9 -99.99 -9.99
2018/08/19 20:00 EDT    2.21   3.74   17   54   20  73.2  78.6 1015.5 27.2  1.018 -99.9 -99.99 -9.99
2018/08/19 20:06 EDT    2.11   3.66   19   52   22  73.0  78.6 1015.5 27.2  1.018 -99.9 -99.99 -9.99
2018/08/19 20:12 EDT    2.02   3.58   17   53   20  73.0  78.6 1015.6 27.2  1.018 -99.9 -99.99 -9.99
2018/08/19 20:18 EDT    1.93   3.54   18   52   20  72.9  78.6 1015.6 27.2  1.018 -99.9 -99.99 -9.99
2018/08/19 20:24 EDT    1.84   3.44    8   47   20  73.4  78.6 1015.6 27.2  1.018 -99.9 -99.99 -9.99
2018/08/19 20:30 EDT    1.76   3.28   18   52   21  72.9  78.6 1015.7 27.2  1.018 -99.9 -99.99 -9.99
2018/08/19 20:36 EDT    1.67   3.18   17   51   20  72.9  78.6 1015.9 27.2  1.018 -99.9 -99.99 -9.99
2018/08/19 20:42 EDT    1.59   3.10   17   55   20  72.7  78.4 1015.8 27.2  1.018 -99.9 -99.99 -9.99
2018/08/19 20:48 EDT    1.52   3.09   14   50   19  72.9  78.4 1016.1 27.2  1.018 -99.9 -99.99 -9.99
2018/08/19 20:54 EDT    1.44   3.06   18   54   20  72.5  78.4 1016.2 27.2  1.018 -99.9 -99.99 -9.99
2018/08/19 21:00 EDT    1.37   2.99   17   55   21  72.7  78.4 1016.3 27.2  1.018 -99.9 -99.99 -9.99
2018/08/19 21:06 EDT    1.30   2.90   15   50   18  72.7  78.4 1016.3 27.2  1.018 -99.9 -99.99 -9.99
2018/08/19 21:12 EDT    1.24   2.85   16   55   18  72.5  78.4 1016.3 27.2  1.018 -99.9 -99.99 -9.99
2018/08/19 21:18 EDT    1.18   2.80   17   55   19  72.5  78.4 1016.4 27.2  1.018 -99.9 -99.99 -9.99
2018/08/19 21:24 EDT    1.12   2.75   16   57   19  72.9  78.4 1016.5 27.2  1.018 -99.9 -99.99 -9.99
2018/08/19 21:30 EDT    1.07   2.67   16   48   18  72.9  78.4 1016.5 27.2  1.018 -99.9 -99.99 -9.99
2018/08/19 21:36 EDT    1.03   2.64   15   50   17  73.0  78.4 1016.7 27.1  1.018 -99.9 -99.99 -9.99
2018/08/19 21:42 EDT    0.98   2.57   14   49   17  72.9  78.4 1016.7 27.1  1.018 -99.9 -99.99 -9.99
2018/08/19 21:48 EDT    0.94   2.53   14   51   16  72.9  78.4 1016.7 27.1  1.018 -99.9 -99.99 -9.99
2018/08/19 21:54 EDT    0.91   2.52   14   57   16  72.9  78.4 1016.6 27.0  1.018 -99.9 -99.99 -9.99
2018/08/19 22:00 EDT    0.87   2.49   14   55   16  73.0  78.4 1016.6 27.0  1.018 -99.9 -99.99 -9.99
2018/08/19 22:06 EDT    0.85   2.46   13   55   14  73.2  78.4 1016.7 26.9  1.018 -99.9 -99.99 -9.99
2018/08/19 22:12 EDT    0.82   2.44   14   53   17  73.2  78.4 1016.7 26.8  1.018 -99.9 -99.99 -9.99
2018/08/19 22:18 EDT    0.80   2.44   14   54   15  73.0  78.4 1016.8 26.7  1.018 -99.9 -99.99 -9.99
2018/08/19 22:24 EDT    0.79   2.43   14   57   16  73.2  78.4 1016.8 26.7  1.018 -99.9 -99.99 -9.99
2018/08/19 22:30 EDT    0.78   2.42   14   51   15  73.2  78.3 1016.9 26.7  1.018 -99.9 -99.99 -9.99
2018/08/19 22:36 EDT    0.77   2.42   13   58   16  73.4  78.3 1016.9 26.7  1.018 -99.9 -99.99 -9.99
2018/08/19 22:42 EDT    0.77   2.40   12   63   15  73.6  78.3 1017.0 26.7  1.018 -99.9 -99.99 -9.99
2018/08/19 22:48 EDT    0.77   2.40   12   59   14  73.6  78.3 1017.1 26.7  1.018 -99.9 -99.99 -9.99
2018/08/19 22:54 EDT    0.77   2.40   12   51   15  73.6  78.3 1017.1 26.7  1.018 -99.9 -99.99 -9.99
2018/08/19 23:00 EDT    0.78   2.41   12   58   15  73.8  78.3 1017.1 26.7  1.018 -99.9 -99.99 -9.99
2018/08/19 23:06 EDT    0.79   2.41   16   61   18  73.6  78.3 1017.0 26.6  1.018 -99.9 -99.99 -9.99
2018/08/19 23:12 EDT    0.81   2.41   16   64   18  73.6  78.3 1016.8 26.6  1.018 -99.9 -99.99 -9.99
2018/08/19 23:18 EDT    0.83   2.43   16   60   19  73.6  78.3 1016.7 26.6  1.018 -99.9 -99.99 -9.99
2018/08/19 23:24 EDT    0.85   2.48   15   63   17  73.6  78.3 1016.7 26.6  1.018 -99.9 -99.99 -9.99
2018/08/19 23:30 EDT    0.88   2.51   15   62   17  73.2  78.3 1016.7 26.6  1.018 -99.9 -99.99 -9.99
2018/08/19 23:36 EDT    0.91   2.54   15   62   17  73.4  78.3 1016.7 26.6  1.018 -99.9 -99.99 -9.99
2018/08/19 23:42 EDT    0.94   2.58   15   62   18  73.2  78.3 1016.7 26.6  1.018 -99.9 -99.99 -9.99
2018/08/19 23:48 EDT    0.98   2.64   16   64   18  73.0  78.3 1016.8 26.6  1.018 -99.9 -99.99 -9.99
2018/08/19 23:54 EDT    1.02   2.64   13   61   15  73.0  78.3 1016.8 26.5  1.018 -99.9 -99.99 -9.99
2018/08/20 00:00 EDT    1.06   2.66   15   60   17  73.2  78.3 1016.8 26.5  1.018 -99.9 -99.99 -9.99
2018/08/20 00:06 EDT    1.11   2.69   15   57   17  73.4  78.3 1016.8 26.4  1.018 -99.9 -99.99 -9.99
2018/08/20 00:12 EDT    1.15   2.72   16   61   17  73.4  78.1 1016.8 26.5  1.018 -99.9 -99.99 -9.99
2018/08/20 00:18 EDT    1.21   2.77   16   64   17  73.4  78.1 1016.7 26.5  1.018 -99.9 -99.99 -9.99
2018/08/20 00:24 EDT    1.26   2.83   16   69   19  73.8  77.9 1016.7 26.5  1.018 -99.9 -99.99 -9.99
2018/08/20 00:30 EDT    1.32   2.85   17   68   19  73.8  77.9 1016.7 26.5  1.018 -99.9 -99.99 -9.99
2018/08/20 00:36 EDT    1.38   2.90   16   70   18  73.8  77.9 1016.7 26.5  1.018 -99.9 -99.99 -9.99
2018/08/20 00:42 EDT    1.44   2.95   15   72   17  73.8  77.7 1016.8 26.6  1.018 -99.9 -99.99 -9.99
2018/08/20 00:48 EDT    1.50   3.00   16   73   18  73.8  77.7 1016.8 26.6  1.018 -99.9 -99.99 -9.99
2018/08/20 00:54 EDT    1.57   3.03   16   73   18  73.8  77.7 1016.7 26.6  1.018 -99.9 -99.99 -9.99
2018/08/20 01:00 EDT    1.64   3.07   14   71   17  73.8  77.7 1016.8 26.6  1.018 -99.9 -99.99 -9.99
2018/08/20 01:06 EDT    1.71   3.12   16   72   18  73.8  77.7 1016.8 26.5  1.018 -99.9 -99.99 -9.99
2018/08/20 01:12 EDT    1.78   3.19   14   73   16  73.8  77.7 1016.9 26.5  1.018 -99.9 -99.99 -9.99
2018/08/20 01:18 EDT    1.85   3.22   14   72   16  73.8  77.7 1016.9 26.5  1.018 -99.9 -99.99 -9.99
2018/08/20 01:24 EDT    1.92   3.29   15   69   16  73.8  77.7 1016.9 26.5  1.018 -99.9 -99.99 -9.99
2018/08/20 01:30 EDT    2.00   3.37   14   76   17  73.8  77.7 1017.0 26.5  1.018 -99.9 -99.99 -9.99
2018/08/20 01:36 EDT    2.07   3.45   14   74   16  73.8  77.7 1016.8 26.5  1.018 -99.9 -99.99 -9.99
2018/08/20 01:42 EDT    2.15   3.51   14   74   17  73.9  77.9 1016.8 26.5  1.018 -99.9 -99.99 -9.99
2018/08/20 01:48 EDT    2.22   3.58   15   75   17  73.8  77.9 1016.7 26.5  1.018 -99.9 -99.99 -9.99
2018/08/20 01:54 EDT    2.30   3.66   16   72   19  73.8  77.9 1016.6 26.5  1.018 -99.9 -99.99 -9.99
2018/08/20 02:00 EDT    2.37   3.73   17   68   19  73.8  78.1 1016.5 26.6  1.018 -99.9 -99.99 -9.99
2018/08/20 02:06 EDT    2.44   3.80   15   73   17  73.9  78.1 1016.4 26.8  1.018 -99.9 -99.99 -9.99
2018/08/20 02:12 EDT    2.52   3.89   16   73   19  73.8  78.1 1016.5 26.8  1.018 -99.9 -99.99 -9.99
2018/08/20 02:18 EDT    2.59   3.92   16   73   18  73.8  78.1 1016.5 26.8  1.018 -99.9 -99.99 -9.99
2018/08/20 02:24 EDT    2.66   3.99   15   77   17  73.8  78.1 1016.6 26.7  1.018 -99.9 -99.99 -9.99
2018/08/20 02:30 EDT    2.72   4.02   15   79   18  73.6  78.1 1016.5 26.8  1.018 -99.9 -99.99 -9.99
2018/08/20 02:36 EDT    2.79   4.07   15   75   17  73.6  78.1 1016.4 27.0  1.018 -99.9 -99.99 -9.99
2018/08/20 02:42 EDT    2.85   4.14   15   69   18  73.8  78.1 1016.6 27.0  1.018 -99.9 -99.99 -9.99
2018/08/20 02:48 EDT    2.92   4.20   15   71   18  73.8  78.1 1016.5 27.0  1.018 -99.9 -99.99 -9.99
2018/08/20 02:54 EDT    2.97   4.25   15   73   18  73.8  78.1 1016.5 27.0  1.018 -99.9 -99.99 -9.99
2018/08/20 03:00 EDT    3.03   4.29   16   74   18  73.8  78.1 1016.5 27.0  1.018 -99.9 -99.99 -9.99
2018/08/20 03:06 EDT    3.08   4.32   15   72   18  73.8  78.1 1016.6 27.0  1.018 -99.9 -99.99 -9.99
2018/08/20 03:12 EDT    3.14   4.35   14   70   16  73.9  78.1 1016.7 26.8  1.018 -99.9 -99.99 -9.99
2018/08/20 03:18 EDT    3.18   4.41   14   71   16  73.8  78.1 1016.9 26.6  1.018 -99.9 -99.99 -9.99
2018/08/20 03:24 EDT    3.23   4.46   13   69   16  73.8  77.9 1017.0 26.6  1.018 -99.9 -99.99 -9.99
2018/08/20 03:30 EDT    3.27   4.48   15   69   17  73.6  77.9 1017.1 26.6  1.018 -99.9 -99.99 -9.99
2018/08/20 03:36 EDT    3.31   4.51   15   71   17  73.6  77.9 1017.1 26.5  1.018 -99.9 -99.99 -9.99
2018/08/20 03:42 EDT    3.35   4.53   16   69   18  73.6  77.9 1017.1 26.5  1.018 -99.9 -99.99 -9.99
2018/08/20 03:48 EDT    3.38   4.57   15   67   17  73.6  77.9 1017.0 26.5  1.018 -99.9 -99.99 -9.99
2018/08/20 03:54 EDT    3.41   4.60   14   64   16  73.6  77.9 1017.0 26.5  1.018 -99.9 -99.99 -9.99
2018/08/20 04:00 EDT    3.43   4.60   14   64   16  73.6  77.5 1017.0 26.6  1.018 -99.9 -99.99 -9.99
2018/08/20 04:06 EDT    3.46   4.63   14   64   17  73.8  77.4 1016.9 26.6  1.018 -99.9 -99.99 -9.99
2018/08/20 04:12 EDT    3.48   4.62   14   67   16  73.9  77.4 1016.9 26.6  1.018 -99.9 -99.99 -9.99
2018/08/20 04:18 EDT    3.49   4.66   13   66   15  73.9  77.4 1017.0 26.6  1.018 -99.9 -99.99 -9.99
2018/08/20 04:24 EDT    3.51   4.71   14   65   16  73.6  77.4 1016.9 26.6  1.018 -99.9 -99.99 -9.99
2018/08/20 04:30 EDT    3.51   4.75   13   66   16  73.8  77.4 1016.9 26.6  1.018 -99.9 -99.99 -9.99
2018/08/20 04:36 EDT    3.52   4.77   13   61   16  73.8  77.5 1016.9 26.5  1.018 -99.9 -99.99 -9.99
2018/08/20 04:42 EDT    3.53   4.77   14   59   16  73.8  77.5 1017.0 26.5  1.018 -99.9 -99.99 -9.99
2018/08/20 04:48 EDT    3.53   4.78   14   62   16  73.6  77.7 1017.1 26.5  1.018 -99.9 -99.99 -9.99
2018/08/20 04:54 EDT    3.52   4.80   13   66   15  73.8  77.7 1017.1 26.4  1.018 -99.9 -99.99 -9.99
2018/08/20 05:00 EDT    3.52   4.79   14   67   17  73.6  77.7 1017.0 26.4  1.018 -99.9 -99.99 -9.99
2018/08/20 05:06 EDT    3.51   4.76   14   71   17  73.8  77.7 1017.0 26.4  1.018 -99.9 -99.99 -9.99
2018/08/20 05:12 EDT    3.50   4.78   15   69   17  73.6  77.7 1016.9 26.4  1.018 -99.9 -99.99 -9.99
2018/08/20 05:18 EDT    3.48   4.75   14   70   17  73.6  77.7 1016.9 26.4  1.018 -99.9 -99.99 -9.99
2018/08/20 05:24 EDT    3.46   4.73   16   67   18  73.2  77.5 1016.9 26.5  1.018 -99.9 -99.99 -9.99
2018/08/20 05:30 EDT    3.44   4.72   16   66   17  73.2  77.5 1016.9 26.5  1.018 -99.9 -99.99 -9.99
2018/08/20 05:36 EDT    3.42   4.71   15   68   18  73.2  77.5 1016.9 26.5  1.018 -99.9 -99.99 -9.99
2018/08/20 05:42 EDT    3.39   4.68   15   69   18  73.0  77.5 1017.0 26.5  1.018 -99.9 -99.99 -9.99
2018/08/20 05:48 EDT    3.36   4.71   14   65   16  73.2  77.5 1017.1 26.5  1.018 -99.9 -99.99 -9.99
2018/08/20 05:54 EDT    3.32   4.62   14   61   16  73.2  77.5 1017.0 26.5  1.018 -99.9 -99.99 -9.99
2018/08/20 06:00 EDT    3.29   4.59   16   64   18  73.2  77.2 1017.0 26.6  1.018 -99.9 -99.99 -9.99
2018/08/20 06:06 EDT    3.25   4.54   15   63   17  73.2  77.2 1017.1 26.6  1.018 -99.9 -99.99 -9.99
2018/08/20 06:12 EDT    3.20   4.50   17   59   20  73.0  77.2 1017.1 26.6  1.018 -99.9 -99.99 -9.99
2018/08/20 06:18 EDT    3.16   4.42   15   53   18  73.2  77.0 1017.2 26.7  1.018 -99.9 -99.99 -9.99
2018/08/20 06:24 EDT    3.11   4.34   16   51   18  72.9  77.2 1017.4 26.6  1.018 -99.9 -99.99 -9.99
2018/08/20 06:30 EDT    3.06   4.35   15   48   16  72.7  77.0 1017.6 26.7  1.018 -99.9 -99.99 -9.99
2018/08/20 06:36 EDT    3.00   4.29   14   47   16  72.7  77.0 1017.7 26.7  1.018 -99.9 -99.99 -9.99
2018/08/20 06:42 EDT    2.94   4.16   12   46   14  72.7  77.0 1017.9 26.6  1.018 -99.9 -99.99 -9.99
2018/08/20 06:48 EDT    2.88   4.10   12   43   14  72.7  76.8 1018.3 26.6  1.018 -99.9 -99.99 -9.99
2018/08/20 06:54 EDT    2.82   4.04   12   50   14  72.7  76.8 1018.4 26.5  1.018 -99.9 -99.99 -9.99
2018/08/20 07:00 EDT    2.75   4.00   12   57   15  72.9  76.6 1018.4 26.6  1.018 -99.9 -99.99 -9.99
2018/08/20 07:06 EDT    2.69   3.93   13   52   15  72.5  76.6 1018.4 26.5  1.018 -99.9 -99.99 -9.99
2018/08/20 07:12 EDT    2.62   3.88   12   56   14  72.9  76.6 1018.5 26.5  1.018 -99.9 -99.99 -9.99
2018/08/20 07:18 EDT    2.54   3.84   13   60   14  72.9  76.8 1018.4 26.5  1.018 -99.9 -99.99 -9.99
2018/08/20 07:24 EDT    2.47   3.73   13   60   16  73.0  76.8 1018.3 26.5  1.018 -99.9 -99.99 -9.99
2018/08/20 07:30 EDT    2.40   3.64   14   62   16  73.0  76.6 1018.5 26.7  1.018 -99.9 -99.99 -9.99
2018/08/20 07:36 EDT    2.32   3.60   12   54   16  73.0  76.8 1018.5 26.7  1.018 -99.9 -99.99 -9.99
2018/08/20 07:42 EDT    2.24   3.52   11   54   13  72.7  76.8 1018.6 26.7  1.018 -99.9 -99.99 -9.99
2018/08/20 07:48 EDT    2.16   3.38    3   68    8  72.9  76.8 1018.7 26.7  1.018 -99.9 -99.99 -9.99
2018/08/20 07:54 EDT    2.08   3.30   12   62   14  72.5  76.8 1018.5 27.0  1.018 -99.9 -99.99 -9.99
2018/08/20 08:00 EDT    2.00   3.23   13   60   15  72.5  76.6 1018.4 26.8  1.018 -99.9 -99.99 -9.99
2018/08/20 08:06 EDT    1.93   3.23   14   63   15  72.5  76.5 1018.4 26.9  1.018 -99.9 -99.99 -9.99
2018/08/20 08:12 EDT    1.85   3.19   13   65   15  72.9  76.5 1018.4 26.8  1.018 -99.9 -99.99 -9.99
2018/08/20 08:18 EDT    1.77   3.10   15   67   17  73.0  76.5 1018.3 26.8  1.018 -99.9 -99.99 -9.99
2018/08/20 08:24 EDT    1.69   3.06   13   70   18  73.4  76.3 1018.2 26.9  1.018 -99.9 -99.99 -9.99
2018/08/20 08:30 EDT    1.62   2.99   16   70   18  73.4  76.3 1018.2 26.9  1.018 -99.9 -99.99 -9.99
2018/08/20 08:36 EDT    1.54   2.89   16   68   18  73.4  76.3 1018.4 26.9  1.018 -99.9 -99.99 -9.99
2018/08/20 08:42 EDT    1.47   2.78   16   74   17  73.4  76.5 1018.4 26.8  1.018 -99.9 -99.99 -9.99
2018/08/20 08:48 EDT    1.40   2.64    5   44   19  74.1  76.5 1018.3 26.8  1.018 -99.9 -99.99 -9.99
2018/08/20 08:54 EDT    1.33   2.56   16   80   19  73.8  76.3 1018.4 26.9  1.018 -99.9 -99.99 -9.99
2018/08/20 09:00 EDT    1.26   2.49   17   76   19  73.6  76.1 1018.3 26.9  1.018 -99.9 -99.99 -9.99
2018/08/20 09:06 EDT    1.20   2.38   16   78   19  73.8  76.3 1018.3 26.9  1.018 -99.9 -99.99 -9.99
2018/08/20 09:12 EDT    1.14   2.27   17   77   20  73.6  76.3 1018.3 26.8  1.018 -99.9 -99.99 -9.99
2018/08/20 09:18 EDT    1.08   2.22   15   78   19  73.8  76.1 1018.4 26.8  1.018 -99.9 -99.99 -9.99
2018/08/20 09:24 EDT    1.03   2.24   18   72   20  73.6  76.1 1018.4 -9.9 -9.999 -99.9 -99.99 -9.99
2018/08/20 09:30 EDT    0.98   2.23   17   74   20  73.8  76.1 1018.5 -9.9 -9.999 -99.9 -99.99 -9.99
2018/08/20 09:36 EDT    0.94   2.18   17   73   20  73.8  76.1 1018.5 26.5  1.018 -99.9 -99.99 -9.99
2018/08/20 09:42 EDT    0.89   2.15   18   75   21  73.6  76.1 1018.7 -9.9 -9.999 -99.9 -99.99 -9.99
2018/08/20 09:48 EDT    0.85   2.05   16   75   19  73.8  76.1 1018.6 26.5  1.018 -99.9 -99.99 -9.99
2018/08/20 09:54 EDT    0.82   2.03   17   75   19  73.6  76.1 1018.6 -9.9 -9.999 -99.9 -99.99 -9.99
2018/08/20 10:00 EDT    0.79   1.91   17   80   19  73.6  76.1 1018.6 26.5  1.018 -99.9 -99.99 -9.99
2018/08/20 10:06 EDT    0.76   1.80   17   78   21  73.6  76.1 1018.6 26.4  1.018 -99.9 -99.99 -9.99
2018/08/20 10:12 EDT    0.74   1.75   18   77   21  73.6  76.1 1018.6 26.4  1.018 -99.9 -99.99 -9.99
2018/08/20 10:18 EDT    0.72   1.78   16   78   20  73.8  76.1 1018.6 26.4  1.018 -99.9 -99.99 -9.99
2018/08/20 10:24 EDT    0.71   1.83   15   82   20  73.8  76.1 1018.6 26.3  1.018 -99.9 -99.99 -9.99
2018/08/20 10:30 EDT    0.70   1.83   15   73   17  73.8  76.1 1018.8 26.3  1.018 -99.9 -99.99 -9.99
2018/08/20 10:36 EDT    0.69   1.84   14   72   18  73.8  76.1 1019.1 26.3  1.018 -99.9 -99.99 -9.99
2018/08/20 10:42 EDT    0.69   1.81   14   73   17  73.6  76.1 1019.2 26.3  1.018 -99.9 -99.99 -9.99
2018/08/20 10:48 EDT    0.69   1.80   16   76   17  73.6  76.1 1019.3 26.3  1.018 -99.9 -99.99 -9.99
2018/08/20 10:54 EDT    0.70   1.78   14   74   16  73.8  76.1 1019.2 26.3  1.018 -99.9 -99.99 -9.99
2018/08/20 11:00 EDT    0.71   1.74   14   71   16  73.9  76.1 1019.3 26.3  1.018 -99.9 -99.99 -9.99
2018/08/20 11:06 EDT    0.72   1.81   16   76   17  73.8  76.1 1019.2 26.3  1.018 -99.9 -99.99 -9.99
2018/08/20 11:12 EDT    0.74   1.82   14   84   17  73.9  76.1 1019.2 26.3  1.018 -99.9 -99.99 -9.99
2018/08/20 11:18 EDT    0.76   1.80   14   78   17  73.9  76.1 1019.2 26.3  1.018 -99.9 -99.99 -9.99
2018/08/20 11:24 EDT    0.79   1.75   12   78   17  74.7  76.1 1019.2 26.3  1.018 -99.9 -99.99 -9.99
2018/08/20 11:30 EDT    0.82   1.85   15   78   18  74.1  76.1 1019.1 26.4  1.018 -99.9 -99.99 -9.99
2018/08/20 11:36 EDT    0.85   1.86   16   74   19  73.9  76.1 1019.2 26.3  1.018 -99.9 -99.99 -9.99
2018/08/20 11:42 EDT    0.89   1.91   15   69   18  73.9  76.3 1019.1 26.3  1.018 -99.9 -99.99 -9.99
2018/08/20 11:48 EDT    0.92   1.97   15   69   17  73.9  76.3 1019.0 26.2  1.018 -99.9 -99.99 -9.99
2018/08/20 11:54 EDT    0.97   2.11   13   72   18  74.3  76.3 1019.1 26.2  1.018 -99.9 -99.99 -9.99
2018/08/20 12:00 EDT    1.02   2.10   16   74   18  73.9  76.3 1019.1 26.2  1.018 -99.9 -99.99 -9.99
2018/08/20 12:06 EDT    1.07   2.11   16   67   17  73.9  76.3 1019.1 26.2  1.018 -99.9 -99.99 -9.99
2018/08/20 12:12 EDT    1.12   2.18   16   69   18  73.8  76.3 1019.1 26.3  1.018 -99.9 -99.99 -9.99
2018/08/20 12:18 EDT    1.18 -99.99 -999 -999 -999 -99.9 -99.9 -999.9 -9.9 -9.999 -99.9 -99.99 -9.99
2018/08/20 12:24 EDT    1.24 -99.99 -999 -999 -999 -99.9 -99.9 -999.9 -9.9 -9.999 -99.9 -99.99 -9.99
2018/08/20 12:30 EDT    1.30 -99.99 -999 -999 -999 -99.9 -99.9 -999.9 -9.9 -9.999 -99.9 -99.99 -9.99
2018/08/20 12:36 EDT    1.37 -99.99 -999 -999 -999 -99.9 -99.9 -999.9 -9.9 -9.999 -99.9 -99.99 -9.99
2018/08/20 12:42 EDT    1.43 -99.99 -999 -999 -999 -99.9 -99.9 -999.9 -9.9 -9.999 -99.9 -99.99 -9.99
2018/08/20 12:48 EDT    1.51 -99.99 -999 -999 -999 -99.9 -99.9 -999.9 -9.9 -9.999 -99.9 -99.99 -9.99
2018/08/20 12:54 EDT    1.58 -99.99 -999 -999 -999 -99.9 -99.9 -999.9 -9.9 -9.999 -99.9 -99.99 -9.99
2018/08/20 13:00 EDT    1.66 -99.99 -999 -999 -999 -99.9 -99.9 -999.9 -9.9 -9.999 -99.9 -99.99 -9.99
2018/08/20 13:06 EDT    1.74 -99.99 -999 -999 -999 -99.9 -99.9 -999.9 -9.9 -9.999 -99.9 -99.99 -9.99
2018/08/20 13:12 EDT    1.82 -99.99 -999 -999 -999 -99.9 -99.9 -999.9 -9.9 -9.999 -99.9 -99.99 -9.99
2018/08/20 13:18 EDT    1.90 -99.99 -999 -999 -999 -99.9 -99.9 -999.9 -9.9 -9.999 -99.9 -99.99 -9.99
2018/08/20 13:24 EDT    1.99 -99.99 -999 -999 -999 -99.9 -99.9 -999.9 -9.9 -9.999 -99.9 -99.99 -9.99
2018/08/20 13:30 EDT    2.07 -99.99 -999 -999 -999 -99.9 -99.9 -999.9 -9.9 -9.999 -99.9 -99.99 -9.99
2018/08/20 13:36 EDT    2.16 -99.99 -999 -999 -999 -99.9 -99.9 -999.9 -9.9 -9.999 -99.9 -99.99 -9.99
2018/08/20 13:42 EDT    2.25 -99.99 -999 -999 -999 -99.9 -99.9 -999.9 -9.9 -9.999 -99.9 -99.99 -9.99
2018/08/20 13:48 EDT    2.34 -99.99 -999 -999 -999 -99.9 -99.9 -999.9 -9.9 -9.999 -99.9 -99.99 -9.99
2018/08/20 13:54 EDT    2.43 -99.99 -999 -999 -999 -99.9 -99.9 -999.9 -9.9 -9.999 -99.9 -99.99 -9.99
2018/08/20 14:00 EDT    2.53 -99.99 -999 -999 -999 -99.9 -99.9 -999.9 -9.9 -9.999 -99.9 -99.99 -9.99
2018/08/20 14:06 EDT    2.62 -99.99 -999 -999 -999 -99.9 -99.9 -999.9 -9.9 -9.999 -99.9 -99.99 -9.99
2018/08/20 14:12 EDT    2.71 -99.99 -999 -999 -999 -99.9 -99.9 -999.9 -9.9 -9.999 -99.9 -99.99 -9.99
2018/08/20 14:18 EDT    2.80 -99.99 -999 -999 -999 -99.9 -99.9 -999.9 -9.9 -9.999 -99.9 -99.99 -9.99
2018/08/20 14:24 EDT    2.89 -99.99 -999 -999 -999 -99.9 -99.9 -999.9 -9.9 -9.999 -99.9 -99.99 -9.99
2018/08/20 14:30 EDT    2.98 -99.99 -999 -999 -999 -99.9 -99.9 -999.9 -9.9 -9.999 -99.9 -99.99 -9.99
2018/08/20 14:36 EDT    3.07 -99.99 -999 -999 -999 -99.9 -99.9 -999.9 -9.9 -9.999 -99.9 -99.99 -9.99
2018/08/20 14:42 EDT    3.16 -99.99 -999 -999 -999 -99.9 -99.9 -999.9 -9.9 -9.999 -99.9 -99.99 -9.99
2018/08/20 14:48 EDT    3.25 -99.99 -999 -999 -999 -99.9 -99.9 -999.9 -9.9 -9.999 -99.9 -99.99 -9.99
2018/08/20 14:54 EDT    3.33 -99.99 -999 -999 -999 -99.9 -99.9 -999.9 -9.9 -9.999 -99.9 -99.99 -9.99
2018/08/20 15:00 EDT    3.41 -99.99 -999 -999 -999 -99.9 -99.9 -999.9 -9.9 -9.999 -99.9 -99.99 -9.99
2018/08/20 15:06 EDT    3.49 -99.99 -999 -999 -999 -99.9 -99.9 -999.9 -9.9 -9.999 -99.9 -99.99 -9.99
2018/08/20 15:12 EDT    3.57 -99.99 -999 -999 -999 -99.9 -99.9 -999.9 -9.9 -9.999 -99.9 -99.99 -9.99
2018/08/20 15:18 EDT    3.64 -99.99 -999 -999 -999 -99.9 -99.9 -999.9 -9.9 -9.999 -99.9 -99.99 -9.99
2018/08/20 15:24 EDT    3.72 -99.99 -999 -999 -999 -99.9 -99.9 -999.9 -9.9 -9.999 -99.9 -99.99 -9.99
2018/08/20 15:30 EDT    3.78 -99.99 -999 -999 -999 -99.9 -99.9 -999.9 -9.9 -9.999 -99.9 -99.99 -9.99
2018/08/20 15:36 EDT    3.85 -99.99 -999 -999 -999 -99.9 -99.9 -999.9 -9.9 -9.999 -99.9 -99.99 -9.99
2018/08/20 15:42 EDT    3.91 -99.99 -999 -999 -999 -99.9 -99.9 -999.9 -9.9 -9.999 -99.9 -99.99 -9.99
2018/08/20 15:48 EDT    3.97 -99.99 -999 -999 -999 -99.9 -99.9 -999.9 -9.9 -9.999 -99.9 -99.99 -9.99
2018/08/20 15:54 EDT    4.03 -99.99 -999 -999 -999 -99.9 -99.9 -999.9 -9.9 -9.999 -99.9 -99.99 -9.99
2018/08/20 16:00 EDT    4.08 -99.99 -999 -999 -999 -99.9 -99.9 -999.9 -9.9 -9.999 -99.9 -99.99 -9.99
2018/08/20 16:06 EDT    4.13 -99.99 -999 -999 -999 -99.9 -99.9 -999.9 -9.9 -9.999 -99.9 -99.99 -9.99
2018/08/20 16:12 EDT    4.17 -99.99 -999 -999 -999 -99.9 -99.9 -999.9 -9.9 -9.999 -99.9 -99.99 -9.99
2018/08/20 16:18 EDT    4.22 -99.99 -999 -999 -999 -99.9 -99.9 -999.9 -9.9 -9.999 -99.9 -99.99 -9.99
2018/08/20 16:24 EDT    4.25 -99.99 -999 -999 -999 -99.9 -99.9 -999.9 -9.9 -9.999 -99.9 -99.99 -9.99
2018/08/20 16:30 EDT    4.29 -99.99 -999 -999 -999 -99.9 -99.9 -999.9 -9.9 -9.999 -99.9 -99.99 -9.99
2018/08/20 16:36 EDT    4.32 -99.99 -999 -999 -999 -99.9 -99.9 -999.9 -9.9 -9.999 -99.9 -99.99 -9.99
2018/08/20 16:42 EDT    4.34 -99.99 -999 -999 -999 -99.9 -99.9 -999.9 -9.9 -9.999 -99.9 -99.99 -9.99
2018/08/20 16:48 EDT    4.36 -99.99 -999 -999 -999 -99.9 -99.9 -999.9 -9.9 -9.999 -99.9 -99.99 -9.99
2018/08/20 16:54 EDT    4.38 -99.99 -999 -999 -999 -99.9 -99.9 -999.9 -9.9 -9.999 -99.9 -99.99 -9.99
2018/08/20 17:00 EDT    4.40 -99.99 -999 -999 -999 -99.9 -99.9 -999.9 -9.9 -9.999 -99.9 -99.99 -9.99
2018/08/20 17:06 EDT    4.41 -99.99 -999 -999 -999 -99.9 -99.9 -999.9 -9.9 -9.999 -99.9 -99.99 -9.99
2018/08/20 17:12 EDT    4.42 -99.99 -999 -999 -999 -99.9 -99.9 -999.9 -9.9 -9.999 -99.9 -99.99 -9.99
2018/08/20 17:18 EDT    4.42 -99.99 -999 -999 -999 -99.9 -99.9 -999.9 -9.9 -9.999 -99.9 -99.99 -9.99
2018/08/20 17:24 EDT    4.42 -99.99 -999 -999 -999 -99.9 -99.9 -999.9 -9.9 -9.999 -99.9 -99.99 -9.99
2018/08/20 17:30 EDT    4.42 -99.99 -999 -999 -999 -99.9 -99.9 -999.9 -9.9 -9.999 -99.9 -99.99 -9.99
2018/08/20 17:36 EDT    4.41 -99.99 -999 -999 -999 -99.9 -99.9 -999.9 -9.9 -9.999 -99.9 -99.99 -9.99
2018/08/20 17:42 EDT    4.40 -99.99 -999 -999 -999 -99.9 -99.9 -999.9 -9.9 -9.999 -99.9 -99.99 -9.99
2018/08/20 17:48 EDT    4.38 -99.99 -999 -999 -999 -99.9 -99.9 -999.9 -9.9 -9.999 -99.9 -99.99 -9.99
2018/08/20 17:54 EDT    4.36 -99.99 -999 -999 -999 -99.9 -99.9 -999.9 -9.9 -9.999 -99.9 -99.99 -9.99
2018/08/20 18:00 EDT    4.34 -99.99 -999 -999 -999 -99.9 -99.9 -999.9 -9.9 -9.999 -99.9 -99.99 -9.99
2018/08/20 18:06 EDT    4.31 -99.99 -999 -999 -999 -99.9 -99.9 -999.9 -9.9 -9.999 -99.9 -99.99 -9.99
2018/08/20 18:12 EDT    4.28 -99.99 -999 -999 -999 -99.9 -99.9 -999.9 -9.9 -9.999 -99.9 -99.99 -9.99
2018/08/20 18:18 EDT    4.25 -99.99 -999 -999 -999 -99.9 -99.9 -999.9 -9.9 -9.999 -99.9 -99.99 -9.99
2018/08/20 18:24 EDT    4.21 -99.99 -999 -999 -999 -99.9 -99.9 -999.9 -9.9 -9.999 -99.9 -99.99 -9.99
2018/08/20 18:30 EDT    4.17 -99.99 -999 -999 -999 -99.9 -99.9 -999.9 -9.9 -9.999 -99.9 -99.99 -9.99

Revised: 10/15/2013
NOAA / National Ocean Service
Web site owner: Center for Operational Oceanographic Products and Services